sensor_id;sensor_type;location;lat;lon;timestamp;temperature;humidity
47779;DHT22;33538;48.432;11.350;2022-10-31T00:00:20;13.20;94.20
47779;DHT22;33538;48.432;11.350;2022-10-31T00:02:49;13.20;94.20
47779;DHT22;33538;48.432;11.350;2022-10-31T00:05:15;13.20;94.20
47779;DHT22;33538;48.432;11.350;2022-10-31T00:07:42;13.20;94.20
47779;DHT22;33538;48.432;11.350;2022-10-31T00:10:09;13.20;94.10
47779;DHT22;33538;48.432;11.350;2022-10-31T00:12:36;13.20;94.30
47779;DHT22;33538;48.432;11.350;2022-10-31T00:15:03;13.20;94.20
47779;DHT22;33538;48.432;11.350;2022-10-31T00:17:35;13.20;94.30
47779;DHT22;33538;48.432;11.350;2022-10-31T00:20:03;13.10;94.10
47779;DHT22;33538;48.432;11.350;2022-10-31T00:22:30;13.10;94.10
47779;DHT22;33538;48.432;11.350;2022-10-31T00:24:57;13.10;94.00
47779;DHT22;33538;48.432;11.350;2022-10-31T00:27:24;13.10;94.20
47779;DHT22;33538;48.432;11.350;2022-10-31T00:29:50;13.00;94.00
47779;DHT22;33538;48.432;11.350;2022-10-31T00:32:17;13.10;93.60
47779;DHT22;33538;48.432;11.350;2022-10-31T00:34:44;13.10;93.20
47779;DHT22;33538;48.432;11.350;2022-10-31T00:37:12;13.00;93.10
47779;DHT22;33538;48.432;11.350;2022-10-31T00:39:39;13.00;93.40
47779;DHT22;33538;48.432;11.350;2022-10-31T00:42:05;12.80;93.80
47779;DHT22;33538;48.432;11.350;2022-10-31T00:44:32;12.90;94.30
47779;DHT22;33538;48.432;11.350;2022-10-31T00:46:59;12.90;93.80
47779;DHT22;33538;48.432;11.350;2022-10-31T00:49:25;12.90;93.70
47779;DHT22;33538;48.432;11.350;2022-10-31T00:51:52;12.90;93.40
47779;DHT22;33538;48.432;11.350;2022-10-31T00:54:20;12.90;93.30
47779;DHT22;33538;48.432;11.350;2022-10-31T00:56:47;12.90;93.20
47779;DHT22;33538;48.432;11.350;2022-10-31T00:59:14;12.90;93.20
47779;DHT22;33538;48.432;11.350;2022-10-31T01:01:40;12.90;93.30
47779;DHT22;33538;48.432;11.350;2022-10-31T01:04:07;12.80;93.20
47779;DHT22;33538;48.432;11.350;2022-10-31T01:06:34;12.80;93.30
47779;DHT22;33538;48.432;11.350;2022-10-31T01:09:01;12.70;94.50
47779;DHT22;33538;48.432;11.350;2022-10-31T01:11:29;12.80;94.20
47779;DHT22;33538;48.432;11.350;2022-10-31T01:13:56;12.80;93.80
47779;DHT22;33538;48.432;11.350;2022-10-31T01:16:25;12.80;93.80
47779;DHT22;33538;48.432;11.350;2022-10-31T01:18:52;12.80;93.80
47779;DHT22;33538;48.432;11.350;2022-10-31T01:21:21;12.80;93.40
47779;DHT22;33538;48.432;11.350;2022-10-31T01:23:47;12.80;93.30
47779;DHT22;33538;48.432;11.350;2022-10-31T01:26:16;12.70;93.50
47779;DHT22;33538;48.432;11.350;2022-10-31T01:28:46;12.70;93.50
47779;DHT22;33538;48.432;11.350;2022-10-31T01:31:14;12.60;94.10
47779;DHT22;33538;48.432;11.350;2022-10-31T01:33:44;12.70;94.10
47779;DHT22;33538;48.432;11.350;2022-10-31T01:36:14;12.70;93.70
47779;DHT22;33538;48.432;11.350;2022-10-31T01:38:41;12.70;93.60
47779;DHT22;33538;48.432;11.350;2022-10-31T01:41:08;12.70;93.50
47779;DHT22;33538;48.432;11.350;2022-10-31T01:43:49;12.70;93.50
47779;DHT22;33538;48.432;11.350;2022-10-31T01:46:19;12.60;93.40
47779;DHT22;33538;48.432;11.350;2022-10-31T01:48:47;12.60;93.30
47779;DHT22;33538;48.432;11.350;2022-10-31T01:51:16;12.60;93.10
47779;DHT22;33538;48.432;11.350;2022-10-31T01:53:45;12.60;93.30
47779;DHT22;33538;48.432;11.350;2022-10-31T01:56:14;12.60;93.00
47779;DHT22;33538;48.432;11.350;2022-10-31T01:58:42;12.60;93.00
47779;DHT22;33538;48.432;11.350;2022-10-31T02:01:15;12.60;92.50
47779;DHT22;33538;48.432;11.350;2022-10-31T02:03:43;12.50;92.60
47779;DHT22;33538;48.432;11.350;2022-10-31T02:06:20;12.60;92.50
47779;DHT22;33538;48.432;11.350;2022-10-31T02:08:49;12.50;92.30
47779;DHT22;33538;48.432;11.350;2022-10-31T02:11:16;12.50;92.30
47779;DHT22;33538;48.432;11.350;2022-10-31T02:13:43;12.40;92.60
47779;DHT22;33538;48.432;11.350;2022-10-31T02:16:10;12.50;92.30
47779;DHT22;33538;48.432;11.350;2022-10-31T02:18:38;12.40;92.40
47779;DHT22;33538;48.432;11.350;2022-10-31T02:21:13;12.40;92.50
47779;DHT22;33538;48.432;11.350;2022-10-31T02:24:09;12.40;92.60
47779;DHT22;33538;48.432;11.350;2022-10-31T02:27:09;12.40;92.90
47779;DHT22;33538;48.432;11.350;2022-10-31T02:30:03;12.40;93.00
47779;DHT22;33538;48.432;11.350;2022-10-31T02:35:39;12.40;92.90
47779;DHT22;33538;48.432;11.350;2022-10-31T02:38:13;12.40;92.90
47779;DHT22;33538;48.432;11.350;2022-10-31T02:40:49;12.40;92.90
47779;DHT22;33538;48.432;11.350;2022-10-31T02:43:21;12.30;92.40
47779;DHT22;33538;48.432;11.350;2022-10-31T02:45:58;12.30;92.20
47779;DHT22;33538;48.432;11.350;2022-10-31T02:48:29;12.30;92.10
47779;DHT22;33538;48.432;11.350;2022-10-31T02:51:00;12.30;92.20
47779;DHT22;33538;48.432;11.350;2022-10-31T02:53:31;12.20;92.00
47779;DHT22;33538;48.432;11.350;2022-10-31T02:56:01;12.30;92.20
47779;DHT22;33538;48.432;11.350;2022-10-31T02:58:31;12.20;92.30
47779;DHT22;33538;48.432;11.350;2022-10-31T03:01:22;12.20;92.40
47779;DHT22;33538;48.432;11.350;2022-10-31T03:04:16;12.20;92.10
47779;DHT22;33538;48.432;11.350;2022-10-31T03:06:49;12.20;92.20
47779;DHT22;33538;48.432;11.350;2022-10-31T03:09:24;12.20;92.40
47779;DHT22;33538;48.432;11.350;2022-10-31T03:11:53;12.20;92.40
47779;DHT22;33538;48.432;11.350;2022-10-31T03:14:26;12.20;92.50
47779;DHT22;33538;48.432;11.350;2022-10-31T03:16:59;12.20;92.10
47779;DHT22;33538;48.432;11.350;2022-10-31T03:19:34;12.10;92.30
47779;DHT22;33538;48.432;11.350;2022-10-31T03:22:07;12.00;93.30
47779;DHT22;33538;48.432;11.350;2022-10-31T03:24:37;12.10;93.10
47779;DHT22;33538;48.432;11.350;2022-10-31T03:27:07;12.10;92.70
47779;DHT22;33538;48.432;11.350;2022-10-31T03:29:37;12.10;92.50
47779;DHT22;33538;48.432;11.350;2022-10-31T03:32:07;12.10;93.20
47779;DHT22;33538;48.432;11.350;2022-10-31T03:34:38;12.10;93.10
47779;DHT22;33538;48.432;11.350;2022-10-31T03:37:08;12.10;93.10
47779;DHT22;33538;48.432;11.350;2022-10-31T03:39:39;12.10;93.00
47779;DHT22;33538;48.432;11.350;2022-10-31T03:42:10;12.10;92.60
47779;DHT22;33538;48.432;11.350;2022-10-31T03:44:40;12.10;92.70
47779;DHT22;33538;48.432;11.350;2022-10-31T03:47:09;12.10;92.60
47779;DHT22;33538;48.432;11.350;2022-10-31T03:49:37;12.10;92.50
47779;DHT22;33538;48.432;11.350;2022-10-31T03:52:12;12.10;92.80
47779;DHT22;33538;48.432;11.350;2022-10-31T03:54:43;12.00;92.40
47779;DHT22;33538;48.432;11.350;2022-10-31T03:57:14;12.00;92.30
47779;DHT22;33538;48.432;11.350;2022-10-31T03:59:44;12.00;92.30
47779;DHT22;33538;48.432;11.350;2022-10-31T04:02:16;12.00;92.20
47779;DHT22;33538;48.432;11.350;2022-10-31T04:04:47;12.00;92.90
47779;DHT22;33538;48.432;11.350;2022-10-31T04:07:15;11.90;92.60
47779;DHT22;33538;48.432;11.350;2022-10-31T04:09:45;11.90;92.40
47779;DHT22;33538;48.432;11.350;2022-10-31T04:12:14;11.90;92.50
47779;DHT22;33538;48.432;11.350;2022-10-31T04:14:45;12.00;92.20
47779;DHT22;33538;48.432;11.350;2022-10-31T04:17:15;11.90;92.10
47779;DHT22;33538;48.432;11.350;2022-10-31T04:19:43;11.90;92.20
47779;DHT22;33538;48.432;11.350;2022-10-31T04:22:12;11.90;92.10
47779;DHT22;33538;48.432;11.350;2022-10-31T04:24:40;11.90;92.10
47779;DHT22;33538;48.432;11.350;2022-10-31T04:27:07;11.90;92.00
47779;DHT22;33538;48.432;11.350;2022-10-31T04:29:33;11.80;92.10
47779;DHT22;33538;48.432;11.350;2022-10-31T04:32:00;11.80;92.00
47779;DHT22;33538;48.432;11.350;2022-10-31T04:34:27;11.80;92.00
47779;DHT22;33538;48.432;11.350;2022-10-31T04:36:54;11.80;91.80
47779;DHT22;33538;48.432;11.350;2022-10-31T04:39:22;11.80;91.50
47779;DHT22;33538;48.432;11.350;2022-10-31T04:41:52;11.80;91.50
47779;DHT22;33538;48.432;11.350;2022-10-31T04:44:19;11.80;92.10
47779;DHT22;33538;48.432;11.350;2022-10-31T04:46:46;11.80;92.10
47779;DHT22;33538;48.432;11.350;2022-10-31T04:49:13;11.60;93.10
47779;DHT22;33538;48.432;11.350;2022-10-31T04:51:39;11.70;92.80
47779;DHT22;33538;48.432;11.350;2022-10-31T04:54:06;11.70;92.60
47779;DHT22;33538;48.432;11.350;2022-10-31T04:56:34;11.70;92.70
47779;DHT22;33538;48.432;11.350;2022-10-31T04:59:01;11.70;93.10
47779;DHT22;33538;48.432;11.350;2022-10-31T05:01:28;11.70;93.40
47779;DHT22;33538;48.432;11.350;2022-10-31T05:03:55;11.70;93.10
47779;DHT22;33538;48.432;11.350;2022-10-31T05:06:22;11.70;92.50
47779;DHT22;33538;48.432;11.350;2022-10-31T05:08:49;11.70;92.60
47779;DHT22;33538;48.432;11.350;2022-10-31T05:11:15;11.70;92.40
47779;DHT22;33538;48.432;11.350;2022-10-31T05:13:43;11.70;92.40
47779;DHT22;33538;48.432;11.350;2022-10-31T05:16:10;11.70;92.30
47779;DHT22;33538;48.432;11.350;2022-10-31T05:18:37;11.70;92.90
47779;DHT22;33538;48.432;11.350;2022-10-31T05:21:04;11.70;93.10
47779;DHT22;33538;48.432;11.350;2022-10-31T05:23:31;11.70;93.50
47779;DHT22;33538;48.432;11.350;2022-10-31T05:25:58;11.60;94.40
47779;DHT22;33538;48.432;11.350;2022-10-31T05:28:24;11.70;94.50
47779;DHT22;33538;48.432;11.350;2022-10-31T05:30:52;11.70;94.20
47779;DHT22;33538;48.432;11.350;2022-10-31T05:33:19;11.70;94.40
47779;DHT22;33538;48.432;11.350;2022-10-31T05:35:46;11.60;95.20
47779;DHT22;33538;48.432;11.350;2022-10-31T05:38:13;11.60;96.40
47779;DHT22;33538;48.432;11.350;2022-10-31T05:40:39;11.60;96.50
47779;DHT22;33538;48.432;11.350;2022-10-31T05:43:06;11.70;96.40
47779;DHT22;33538;48.432;11.350;2022-10-31T05:45:33;11.60;95.90
47779;DHT22;33538;48.432;11.350;2022-10-31T05:48:01;11.70;95.70
47779;DHT22;33538;48.432;11.350;2022-10-31T05:50:30;11.70;95.20
47779;DHT22;33538;48.432;11.350;2022-10-31T05:52:59;11.70;95.10
47779;DHT22;33538;48.432;11.350;2022-10-31T05:55:26;11.70;94.90
47779;DHT22;33538;48.432;11.350;2022-10-31T05:57:53;11.60;95.60
47779;DHT22;33538;48.432;11.350;2022-10-31T06:00:20;11.60;96.00
47779;DHT22;33538;48.432;11.350;2022-10-31T06:02:47;11.60;95.90
47779;DHT22;33538;48.432;11.350;2022-10-31T06:05:16;11.70;96.10
47779;DHT22;33538;48.432;11.350;2022-10-31T06:07:43;11.60;96.00
47779;DHT22;33538;48.432;11.350;2022-10-31T06:10:10;11.50;96.90
47779;DHT22;33538;48.432;11.350;2022-10-31T06:12:37;11.60;96.40
47779;DHT22;33538;48.432;11.350;2022-10-31T06:15:05;11.60;95.90
47779;DHT22;33538;48.432;11.350;2022-10-31T06:17:32;11.70;95.70
47779;DHT22;33538;48.432;11.350;2022-10-31T06:19:59;11.60;95.50
47779;DHT22;33538;48.432;11.350;2022-10-31T06:22:28;11.70;95.60
47779;DHT22;33538;48.432;11.350;2022-10-31T06:24:54;11.70;95.60
47779;DHT22;33538;48.432;11.350;2022-10-31T06:27:21;11.70;95.80
47779;DHT22;33538;48.432;11.350;2022-10-31T06:29:48;11.70;95.70
47779;DHT22;33538;48.432;11.350;2022-10-31T06:32:15;11.70;95.40
47779;DHT22;33538;48.432;11.350;2022-10-31T06:34:42;11.70;95.40
47779;DHT22;33538;48.432;11.350;2022-10-31T06:37:12;11.70;95.30
47779;DHT22;33538;48.432;11.350;2022-10-31T06:39:40;11.60;95.40
47779;DHT22;33538;48.432;11.350;2022-10-31T06:42:07;11.60;96.00
47779;DHT22;33538;48.432;11.350;2022-10-31T06:44:34;11.70;96.20
47779;DHT22;33538;48.432;11.350;2022-10-31T06:47:00;11.70;96.30
47779;DHT22;33538;48.432;11.350;2022-10-31T06:49:27;11.60;96.80
47779;DHT22;33538;48.432;11.350;2022-10-31T06:51:54;11.70;97.20
47779;DHT22;33538;48.432;11.350;2022-10-31T06:54:21;11.60;97.70
47779;DHT22;33538;48.432;11.350;2022-10-31T06:56:49;11.70;97.10
47779;DHT22;33538;48.432;11.350;2022-10-31T06:59:16;11.80;96.90
47779;DHT22;33538;48.432;11.350;2022-10-31T07:01:42;11.70;96.90
47779;DHT22;33538;48.432;11.350;2022-10-31T07:04:10;11.80;97.20
47779;DHT22;33538;48.432;11.350;2022-10-31T07:06:37;11.80;97.20
47779;DHT22;33538;48.432;11.350;2022-10-31T07:09:04;11.90;97.30
47779;DHT22;33538;48.432;11.350;2022-10-31T07:11:31;11.90;97.80
47779;DHT22;33538;48.432;11.350;2022-10-31T07:13:59;11.90;97.70
47779;DHT22;33538;48.432;11.350;2022-10-31T07:16:26;11.90;97.90
47779;DHT22;33538;48.432;11.350;2022-10-31T07:18:53;11.90;98.30
47779;DHT22;33538;48.432;11.350;2022-10-31T07:21:20;11.90;98.60
47779;DHT22;33538;48.432;11.350;2022-10-31T07:23:47;11.90;98.30
47779;DHT22;33538;48.432;11.350;2022-10-31T07:26:14;12.00;98.70
47779;DHT22;33538;48.432;11.350;2022-10-31T07:28:41;12.00;98.40
47779;DHT22;33538;48.432;11.350;2022-10-31T07:31:09;12.00;98.40
47779;DHT22;33538;48.432;11.350;2022-10-31T07:33:36;12.00;98.80
47779;DHT22;33538;48.432;11.350;2022-10-31T07:36:03;12.00;98.80
47779;DHT22;33538;48.432;11.350;2022-10-31T07:38:30;12.00;99.30
47779;DHT22;33538;48.432;11.350;2022-10-31T07:40:57;12.00;99.10
47779;DHT22;33538;48.432;11.350;2022-10-31T07:43:24;12.00;99.20
47779;DHT22;33538;48.432;11.350;2022-10-31T07:45:51;12.10;99.30
47779;DHT22;33538;48.432;11.350;2022-10-31T07:48:19;12.10;99.60
47779;DHT22;33538;48.432;11.350;2022-10-31T07:50:46;12.10;99.90
47779;DHT22;33538;48.432;11.350;2022-10-31T07:53:14;12.10;99.90
47779;DHT22;33538;48.432;11.350;2022-10-31T07:55:41;12.10;99.90
47779;DHT22;33538;48.432;11.350;2022-10-31T07:58:09;12.10;99.90
47779;DHT22;33538;48.432;11.350;2022-10-31T08:00:37;12.20;99.90
47779;DHT22;33538;48.432;11.350;2022-10-31T08:03:05;12.20;99.90
47779;DHT22;33538;48.432;11.350;2022-10-31T08:05:35;12.20;99.90
47779;DHT22;33538;48.432;11.350;2022-10-31T08:08:02;12.20;99.90
47779;DHT22;33538;48.432;11.350;2022-10-31T08:10:30;12.20;99.90
47779;DHT22;33538;48.432;11.350;2022-10-31T08:12:57;12.20;99.90
47779;DHT22;33538;48.432;11.350;2022-10-31T08:15:25;12.20;99.90
47779;DHT22;33538;48.432;11.350;2022-10-31T08:17:52;12.20;99.90
47779;DHT22;33538;48.432;11.350;2022-10-31T08:20:19;12.30;99.90
47779;DHT22;33538;48.432;11.350;2022-10-31T08:22:55;12.30;99.90
47779;DHT22;33538;48.432;11.350;2022-10-31T08:25:22;12.30;99.90
47779;DHT22;33538;48.432;11.350;2022-10-31T08:27:50;12.30;99.90
47779;DHT22;33538;48.432;11.350;2022-10-31T08:30:17;12.30;99.90
47779;DHT22;33538;48.432;11.350;2022-10-31T08:32:44;12.30;99.90
47779;DHT22;33538;48.432;11.350;2022-10-31T08:35:11;12.30;99.90
47779;DHT22;33538;48.432;11.350;2022-10-31T08:37:38;12.30;99.90
47779;DHT22;33538;48.432;11.350;2022-10-31T08:40:07;12.40;99.90
47779;DHT22;33538;48.432;11.350;2022-10-31T08:42:34;12.40;99.90
47779;DHT22;33538;48.432;11.350;2022-10-31T08:45:01;12.40;99.90
47779;DHT22;33538;48.432;11.350;2022-10-31T08:47:28;12.40;99.90
47779;DHT22;33538;48.432;11.350;2022-10-31T08:49:55;12.50;99.90
47779;DHT22;33538;48.432;11.350;2022-10-31T08:52:23;12.50;99.90
47779;DHT22;33538;48.432;11.350;2022-10-31T08:55:11;12.50;99.90
47779;DHT22;33538;48.432;11.350;2022-10-31T08:57:38;12.50;99.90
47779;DHT22;33538;48.432;11.350;2022-10-31T09:00:06;12.60;99.90
47779;DHT22;33538;48.432;11.350;2022-10-31T09:02:33;12.60;99.90
47779;DHT22;33538;48.432;11.350;2022-10-31T09:05:00;12.50;99.90
47779;DHT22;33538;48.432;11.350;2022-10-31T09:07:27;12.50;99.80
47779;DHT22;33538;48.432;11.350;2022-10-31T09:09:54;12.60;99.60
47779;DHT22;33538;48.432;11.350;2022-10-31T09:12:22;12.60;99.30
47779;DHT22;33538;48.432;11.350;2022-10-31T09:14:49;12.60;99.60
47779;DHT22;33538;48.432;11.350;2022-10-31T09:17:15;12.70;99.00
47779;DHT22;33538;48.432;11.350;2022-10-31T09:19:42;12.70;98.90
47779;DHT22;33538;48.432;11.350;2022-10-31T09:22:09;12.70;99.20
47779;DHT22;33538;48.432;11.350;2022-10-31T09:24:36;12.80;98.90
47779;DHT22;33538;48.432;11.350;2022-10-31T09:27:03;12.80;98.80
47779;DHT22;33538;48.432;11.350;2022-10-31T09:29:31;12.80;98.80
47779;DHT22;33538;48.432;11.350;2022-10-31T09:31:58;12.80;98.70
47779;DHT22;33538;48.432;11.350;2022-10-31T09:34:24;12.80;98.80
47779;DHT22;33538;48.432;11.350;2022-10-31T09:36:53;12.80;98.80
47779;DHT22;33538;48.432;11.350;2022-10-31T09:39:19;12.80;98.80
47779;DHT22;33538;48.432;11.350;2022-10-31T09:42:09;12.90;98.70
47779;DHT22;33538;48.432;11.350;2022-10-31T09:44:50;12.90;98.70
47779;DHT22;33538;48.432;11.350;2022-10-31T09:47:26;12.90;98.60
47779;DHT22;33538;48.432;11.350;2022-10-31T09:50:12;13.00;98.50
47779;DHT22;33538;48.432;11.350;2022-10-31T09:52:44;13.00;98.50
47779;DHT22;33538;48.432;11.350;2022-10-31T09:55:16;13.00;98.40
47779;DHT22;33538;48.432;11.350;2022-10-31T09:57:45;13.10;98.40
47779;DHT22;33538;48.432;11.350;2022-10-31T10:00:18;13.10;98.50
47779;DHT22;33538;48.432;11.350;2022-10-31T10:02:48;13.20;98.60
47779;DHT22;33538;48.432;11.350;2022-10-31T10:05:19;13.20;98.70
47779;DHT22;33538;48.432;11.350;2022-10-31T10:07:53;13.20;98.70
47779;DHT22;33538;48.432;11.350;2022-10-31T10:10:26;13.20;98.70
47779;DHT22;33538;48.432;11.350;2022-10-31T10:13:13;13.30;99.00
47779;DHT22;33538;48.432;11.350;2022-10-31T10:15:56;13.30;99.10
47779;DHT22;33538;48.432;11.350;2022-10-31T10:18:35;13.30;99.40
47779;DHT22;33538;48.432;11.350;2022-10-31T10:21:13;13.30;99.40
47779;DHT22;33538;48.432;11.350;2022-10-31T10:23:53;13.40;99.60
47779;DHT22;33538;48.432;11.350;2022-10-31T10:26:23;13.40;99.70
47779;DHT22;33538;48.432;11.350;2022-10-31T10:28:56;13.40;99.80
47779;DHT22;33538;48.432;11.350;2022-10-31T10:31:27;13.40;99.90
47779;DHT22;33538;48.432;11.350;2022-10-31T10:34:01;13.50;99.90
47779;DHT22;33538;48.432;11.350;2022-10-31T10:36:35;13.50;99.90
47779;DHT22;33538;48.432;11.350;2022-10-31T10:39:05;13.50;99.90
47779;DHT22;33538;48.432;11.350;2022-10-31T10:41:43;13.50;99.90
47779;DHT22;33538;48.432;11.350;2022-10-31T10:44:10;13.50;99.90
47779;DHT22;33538;48.432;11.350;2022-10-31T10:46:42;13.50;99.90
47779;DHT22;33538;48.432;11.350;2022-10-31T10:49:15;13.60;99.90
47779;DHT22;33538;48.432;11.350;2022-10-31T10:51:45;13.60;99.90
47779;DHT22;33538;48.432;11.350;2022-10-31T10:54:41;13.60;99.90
47779;DHT22;33538;48.432;11.350;2022-10-31T11:00:00;13.60;99.90
47779;DHT22;33538;48.432;11.350;2022-10-31T11:02:31;13.60;99.90
47779;DHT22;33538;48.432;11.350;2022-10-31T11:05:00;13.60;99.90
47779;DHT22;33538;48.432;11.350;2022-10-31T11:07:37;13.60;99.90
47779;DHT22;33538;48.432;11.350;2022-10-31T11:10:06;13.70;99.90
47779;DHT22;33538;48.432;11.350;2022-10-31T11:12:33;13.70;99.90
47779;DHT22;33538;48.432;11.350;2022-10-31T11:15:05;13.70;99.90
47779;DHT22;33538;48.432;11.350;2022-10-31T11:17:38;13.70;99.90
47779;DHT22;33538;48.432;11.350;2022-10-31T11:20:25;13.70;99.90
47779;DHT22;33538;48.432;11.350;2022-10-31T11:23:01;13.70;99.90
47779;DHT22;33538;48.432;11.350;2022-10-31T11:25:29;13.70;99.90
47779;DHT22;33538;48.432;11.350;2022-10-31T11:27:59;13.70;99.90
47779;DHT22;33538;48.432;11.350;2022-10-31T11:30:26;13.70;99.90
47779;DHT22;33538;48.432;11.350;2022-10-31T11:32:55;13.70;99.90
47779;DHT22;33538;48.432;11.350;2022-10-31T11:35:24;13.80;99.90
47779;DHT22;33538;48.432;11.350;2022-10-31T11:37:53;13.80;99.90
47779;DHT22;33538;48.432;11.350;2022-10-31T11:40:22;13.70;99.90
47779;DHT22;33538;48.432;11.350;2022-10-31T11:42:51;13.80;99.90
47779;DHT22;33538;48.432;11.350;2022-10-31T11:45:30;13.80;99.90
47779;DHT22;33538;48.432;11.350;2022-10-31T11:48:00;13.80;99.90
47779;DHT22;33538;48.432;11.350;2022-10-31T11:50:34;13.80;99.90
47779;DHT22;33538;48.432;11.350;2022-10-31T11:53:03;13.80;99.90
47779;DHT22;33538;48.432;11.350;2022-10-31T11:55:32;13.90;99.90
47779;DHT22;33538;48.432;11.350;2022-10-31T11:57:59;13.90;99.90
47779;DHT22;33538;48.432;11.350;2022-10-31T12:00:29;13.90;99.90
47779;DHT22;33538;48.432;11.350;2022-10-31T12:03:15;13.90;99.90
47779;DHT22;33538;48.432;11.350;2022-10-31T12:05:45;13.90;99.90
47779;DHT22;33538;48.432;11.350;2022-10-31T12:08:14;13.90;99.90
47779;DHT22;33538;48.432;11.350;2022-10-31T12:10:50;13.90;99.90
47779;DHT22;33538;48.432;11.350;2022-10-31T12:13:32;14.00;99.90
47779;DHT22;33538;48.432;11.350;2022-10-31T12:16:05;14.00;99.90
47779;DHT22;33538;48.432;11.350;2022-10-31T12:18:53;14.00;99.90
47779;DHT22;33538;48.432;11.350;2022-10-31T12:21:45;14.00;99.90
47779;DHT22;33538;48.432;11.350;2022-10-31T12:24:28;14.10;99.90
47779;DHT22;33538;48.432;11.350;2022-10-31T12:27:08;14.10;99.90
47779;DHT22;33538;48.432;11.350;2022-10-31T12:29:50;14.10;99.90
47779;DHT22;33538;48.432;11.350;2022-10-31T12:32:27;14.10;99.90
47779;DHT22;33538;48.432;11.350;2022-10-31T12:35:14;14.20;99.90
47779;DHT22;33538;48.432;11.350;2022-10-31T12:37:52;14.20;99.90
47779;DHT22;33538;48.432;11.350;2022-10-31T12:40:33;14.20;99.90
47779;DHT22;33538;48.432;11.350;2022-10-31T12:43:12;14.20;99.90
47779;DHT22;33538;48.432;11.350;2022-10-31T12:45:52;14.20;99.90
47779;DHT22;33538;48.432;11.350;2022-10-31T12:51:31;14.20;99.90
47779;DHT22;33538;48.432;11.350;2022-10-31T12:54:14;14.20;99.90
47779;DHT22;33538;48.432;11.350;2022-10-31T12:56:48;14.30;99.90
47779;DHT22;33538;48.432;11.350;2022-10-31T12:59:24;14.30;99.90
47779;DHT22;33538;48.432;11.350;2022-10-31T13:01:58;14.30;99.90
47779;DHT22;33538;48.432;11.350;2022-10-31T13:04:36;14.30;99.90
47779;DHT22;33538;48.432;11.350;2022-10-31T13:07:10;14.30;99.90
47779;DHT22;33538;48.432;11.350;2022-10-31T13:09:46;14.40;99.90
47779;DHT22;33538;48.432;11.350;2022-10-31T13:12:15;14.40;99.90
47779;DHT22;33538;48.432;11.350;2022-10-31T13:14:44;14.40;99.90
47779;DHT22;33538;48.432;11.350;2022-10-31T13:17:18;14.40;99.90
47779;DHT22;33538;48.432;11.350;2022-10-31T13:19:48;14.40;99.90
47779;DHT22;33538;48.432;11.350;2022-10-31T13:22:21;14.40;99.90
47779;DHT22;33538;48.432;11.350;2022-10-31T13:24:54;14.50;99.90
47779;DHT22;33538;48.432;11.350;2022-10-31T13:27:25;14.50;99.90
47779;DHT22;33538;48.432;11.350;2022-10-31T13:30:00;14.50;99.90
47779;DHT22;33538;48.432;11.350;2022-10-31T13:32:38;14.50;99.90
47779;DHT22;33538;48.432;11.350;2022-10-31T13:35:13;14.50;99.90
47779;DHT22;33538;48.432;11.350;2022-10-31T13:37:46;14.50;99.90
47779;DHT22;33538;48.432;11.350;2022-10-31T13:40:30;14.60;99.90
47779;DHT22;33538;48.432;11.350;2022-10-31T13:43:04;14.60;99.90
47779;DHT22;33538;48.432;11.350;2022-10-31T13:45:33;14.60;99.90
47779;DHT22;33538;48.432;11.350;2022-10-31T13:48:01;14.60;99.90
47779;DHT22;33538;48.432;11.350;2022-10-31T13:50:55;14.60;99.90
47779;DHT22;33538;48.432;11.350;2022-10-31T13:53:39;14.60;99.90
47779;DHT22;33538;48.432;11.350;2022-10-31T13:56:25;14.60;99.90
47779;DHT22;33538;48.432;11.350;2022-10-31T13:59:10;14.60;99.90
47779;DHT22;33538;48.432;11.350;2022-10-31T14:01:47;14.60;99.90
47779;DHT22;33538;48.432;11.350;2022-10-31T14:04:15;14.60;99.90
47779;DHT22;33538;48.432;11.350;2022-10-31T14:07:06;14.60;99.90
47779;DHT22;33538;48.432;11.350;2022-10-31T14:09:36;14.60;99.90
47779;DHT22;33538;48.432;11.350;2022-10-31T14:12:07;14.60;99.90
47779;DHT22;33538;48.432;11.350;2022-10-31T14:14:46;14.60;99.90
47779;DHT22;33538;48.432;11.350;2022-10-31T14:17:22;14.60;99.90
47779;DHT22;33538;48.432;11.350;2022-10-31T14:20:01;14.60;99.90
47779;DHT22;33538;48.432;11.350;2022-10-31T14:22:30;14.60;99.90
47779;DHT22;33538;48.432;11.350;2022-10-31T14:24:58;14.60;99.90
47779;DHT22;33538;48.432;11.350;2022-10-31T14:27:45;14.60;99.90
47779;DHT22;33538;48.432;11.350;2022-10-31T14:30:18;14.60;99.90
47779;DHT22;33538;48.432;11.350;2022-10-31T14:32:50;14.60;99.90
47779;DHT22;33538;48.432;11.350;2022-10-31T14:35:18;14.60;99.90
47779;DHT22;33538;48.432;11.350;2022-10-31T14:38:03;14.60;99.90
47779;DHT22;33538;48.432;11.350;2022-10-31T14:40:41;14.60;99.90
47779;DHT22;33538;48.432;11.350;2022-10-31T14:43:29;14.60;99.90
47779;DHT22;33538;48.432;11.350;2022-10-31T14:46:01;14.60;99.90
47779;DHT22;33538;48.432;11.350;2022-10-31T14:49:02;14.60;99.90
47779;DHT22;33538;48.432;11.350;2022-10-31T14:51:36;14.60;99.90
47779;DHT22;33538;48.432;11.350;2022-10-31T14:54:05;14.60;99.90
47779;DHT22;33538;48.432;11.350;2022-10-31T14:56:37;14.60;99.90
47779;DHT22;33538;48.432;11.350;2022-10-31T14:59:07;14.60;99.90
47779;DHT22;33538;48.432;11.350;2022-10-31T15:01:36;14.60;99.90
47779;DHT22;33538;48.432;11.350;2022-10-31T15:04:09;14.60;99.90
47779;DHT22;33538;48.432;11.350;2022-10-31T15:06:58;14.60;99.90
47779;DHT22;33538;48.432;11.350;2022-10-31T15:09:27;14.60;99.90
47779;DHT22;33538;48.432;11.350;2022-10-31T15:11:57;14.70;99.90
47779;DHT22;33538;48.432;11.350;2022-10-31T15:14:26;14.60;99.90
47779;DHT22;33538;48.432;11.350;2022-10-31T15:16:53;14.60;99.90
47779;DHT22;33538;48.432;11.350;2022-10-31T15:19:23;14.60;99.90
47779;DHT22;33538;48.432;11.350;2022-10-31T15:21:52;14.60;99.90
47779;DHT22;33538;48.432;11.350;2022-10-31T15:24:20;14.60;99.90
47779;DHT22;33538;48.432;11.350;2022-10-31T15:26:49;14.60;99.90
47779;DHT22;33538;48.432;11.350;2022-10-31T15:29:20;14.60;99.90
47779;DHT22;33538;48.432;11.350;2022-10-31T15:31:51;14.60;99.90
47779;DHT22;33538;48.432;11.350;2022-10-31T15:34:22;14.60;99.90
47779;DHT22;33538;48.432;11.350;2022-10-31T15:36:50;14.60;99.90
47779;DHT22;33538;48.432;11.350;2022-10-31T15:39:17;14.70;99.90
47779;DHT22;33538;48.432;11.350;2022-10-31T15:41:49;14.60;99.90
47779;DHT22;33538;48.432;11.350;2022-10-31T15:44:24;14.60;99.90
47779;DHT22;33538;48.432;11.350;2022-10-31T15:46:54;14.60;99.90